createdAt,value
2022-10-19T00:00:33.198Z,12.18
2022-10-19T00:02:59.678Z,11.35
2022-10-19T00:05:26.197Z,12.00
2022-10-19T00:07:52.860Z,12.20
2022-10-19T00:10:19.366Z,12.55
2022-10-19T00:12:45.889Z,12.73
2022-10-19T00:15:12.482Z,12.07
2022-10-19T00:17:38.977Z,11.52
2022-10-19T00:20:05.901Z,13.70
2022-10-19T00:22:32.787Z,12.07
2022-10-19T00:24:59.482Z,12.30
2022-10-19T00:27:26.003Z,11.60
2022-10-19T00:29:53.056Z,11.88
2022-10-19T00:32:19.643Z,13.43
2022-10-19T00:34:46.164Z,12.13
2022-10-19T00:37:12.641Z,11.80
2022-10-19T00:39:39.614Z,12.32
2022-10-19T00:42:06.334Z,11.45
2022-10-19T00:44:32.766Z,11.38
2022-10-19T00:47:01.967Z,10.38
2022-10-19T00:49:30.542Z,12.65
2022-10-19T00:52:01.218Z,11.13
2022-10-19T00:54:28.243Z,12.98
2022-10-19T00:56:57.460Z,12.00
2022-10-19T00:59:25.286Z,11.30
2022-10-19T01:01:52.699Z,11.15
2022-10-19T01:04:21.913Z,11.00
2022-10-19T01:06:48.530Z,13.30
2022-10-19T01:09:15.059Z,11.13
2022-10-19T01:11:54.067Z,11.05
2022-10-19T01:14:33.093Z,10.73
2022-10-19T01:17:11.657Z,10.32
2022-10-19T01:19:56.897Z,10.70
2022-10-19T01:22:48.169Z,10.95
2022-10-19T01:25:21.678Z,11.45
2022-10-19T01:27:57.812Z,11.95
2022-10-19T01:30:45.953Z,10.48
2022-10-19T01:33:18.805Z,10.25
2022-10-19T01:36:04.333Z,9.68
2022-10-19T01:38:38.537Z,10.93
2022-10-19T01:41:11.395Z,10.88
2022-10-19T01:44:01.969Z,10.35
2022-10-19T01:46:41.308Z,11.02
2022-10-19T01:49:13.100Z,9.88
2022-10-19T01:51:45.045Z,10.25
2022-10-19T01:54:14.313Z,10.38
2022-10-19T01:56:43.171Z,10.77
2022-10-19T01:59:11.033Z,11.43
2022-10-19T02:01:41.211Z,12.32
2022-10-19T02:04:08.159Z,11.25
2022-10-19T02:06:35.565Z,9.65
2022-10-19T02:09:02.112Z,11.25
2022-10-19T02:11:29.269Z,10.45
2022-10-19T02:13:59.549Z,10.02
2022-10-19T02:16:41.083Z,10.73
2022-10-19T02:19:08.859Z,9.30
2022-10-19T02:21:35.688Z,8.63
2022-10-19T02:24:02.216Z,11.38
2022-10-19T02:26:28.809Z,10.15
2022-10-19T02:28:56.047Z,9.27
2022-10-19T02:31:22.971Z,11.73
2022-10-19T02:33:49.559Z,10.63
2022-10-19T02:36:16.167Z,10.77
2022-10-19T02:38:42.781Z,8.43
2022-10-19T02:41:17.284Z,10.00
2022-10-19T02:43:47.287Z,11.25
2022-10-19T02:46:20.377Z,10.18
2022-10-19T02:48:47.238Z,10.50
2022-10-19T02:51:39.837Z,10.18
2022-10-19T02:54:08.151Z,10.05
2022-10-19T02:56:35.415Z,9.23
2022-10-19T02:59:02.366Z,9.75
2022-10-19T03:01:28.944Z,10.38
2022-10-19T03:03:55.467Z,9.70
2022-10-19T03:06:22.122Z,10.57
2022-10-19T03:08:48.597Z,10.38
2022-10-19T03:11:15.126Z,10.57
2022-10-19T03:13:42.261Z,9.10
2022-10-19T03:16:10.766Z,11.52
2022-10-19T03:21:05.882Z,9.50
2022-10-19T03:23:32.498Z,9.32
2022-10-19T03:25:58.987Z,8.77
2022-10-19T03:28:25.552Z,10.38
2022-10-19T03:30:52.115Z,8.40
2022-10-19T03:33:18.678Z,8.10
2022-10-19T03:35:45.236Z,10.00
2022-10-19T03:38:11.843Z,8.40
2022-10-19T03:40:39.672Z,10.68
2022-10-19T03:43:06.449Z,8.45
2022-10-19T03:45:32.992Z,10.00
2022-10-19T03:47:59.500Z,9.82
2022-10-19T03:50:26.088Z,9.65
2022-10-19T03:52:52.591Z,8.55
2022-10-19T03:55:19.115Z,8.10
2022-10-19T03:57:45.623Z,8.32
2022-10-19T04:00:12.789Z,10.30
2022-10-19T04:02:39.214Z,8.80
2022-10-19T04:05:06.323Z,8.45
2022-10-19T04:07:33.113Z,8.10
2022-10-19T04:09:59.850Z,8.77
2022-10-19T04:12:26.333Z,7.90
2022-10-19T04:14:57.278Z,9.18
2022-10-19T04:17:24.794Z,8.27
2022-10-19T04:19:51.281Z,9.82
2022-10-19T04:22:17.774Z,9.23
2022-10-19T04:24:44.265Z,8.43
2022-10-19T04:27:10.792Z,9.43
2022-10-19T04:29:37.321Z,7.68
2022-10-19T04:32:03.810Z,7.30
2022-10-19T04:34:30.305Z,9.70
2022-10-19T04:36:59.232Z,7.30
2022-10-19T04:39:25.762Z,8.32
2022-10-19T04:41:52.274Z,7.53
2022-10-19T04:44:19.743Z,8.80
2022-10-19T04:46:46.298Z,8.70
2022-10-19T04:49:16.377Z,9.15
2022-10-19T04:51:45.944Z,7.97
2022-10-19T04:54:12.482Z,8.90
2022-10-19T04:56:39.561Z,7.90
2022-10-19T04:59:06.077Z,6.50
2022-10-19T05:01:32.599Z,7.32
2022-10-19T05:04:01.026Z,8.32
2022-10-19T05:08:54.484Z,6.43
2022-10-19T05:11:21.187Z,7.55
2022-10-19T05:13:48.300Z,7.18
2022-10-19T05:16:17.918Z,7.22
2022-10-19T05:18:51.653Z,7.18
2022-10-19T05:21:19.250Z,8.45
2022-10-19T05:23:45.845Z,10.15
2022-10-19T05:26:22.899Z,7.10
2022-10-19T05:28:50.858Z,6.70
2022-10-19T05:31:19.698Z,8.63
2022-10-19T05:33:46.852Z,8.30
2022-10-19T05:36:32.294Z,9.70
2022-10-19T05:39:01.981Z,7.65
2022-10-19T05:41:28.753Z,8.80
2022-10-19T05:43:57.378Z,8.50
2022-10-19T05:46:25.114Z,9.40
2022-10-19T05:48:51.698Z,8.00
2022-10-19T05:51:20.113Z,8.40
2022-10-19T05:53:46.846Z,9.00
2022-10-19T05:56:19.351Z,7.47
2022-10-19T05:58:46.132Z,7.28
2022-10-19T06:01:12.797Z,9.30
2022-10-19T06:03:39.750Z,7.93
2022-10-19T06:06:07.889Z,8.32
2022-10-19T06:08:34.680Z,8.77
2022-10-19T06:11:28.711Z,7.20
2022-10-19T06:13:56.833Z,8.13
2022-10-19T06:16:24.401Z,6.45
2022-10-19T06:18:52.287Z,7.63
2022-10-19T06:21:20.927Z,8.40
2022-10-19T06:23:55.186Z,7.40
2022-10-19T06:26:22.017Z,9.27
2022-10-19T06:28:49.472Z,8.70
2022-10-19T06:31:16.846Z,8.70
2022-10-19T06:33:47.230Z,7.47
2022-10-19T06:36:18.737Z,6.07
2022-10-19T06:38:45.592Z,7.10
2022-10-19T06:41:12.451Z,7.38
2022-10-19T06:43:39.272Z,6.50
2022-10-19T06:46:11.610Z,6.88
2022-10-19T06:48:38.515Z,7.28
2022-10-19T06:51:07.422Z,8.20
2022-10-19T06:53:37.142Z,8.65
2022-10-19T06:56:05.989Z,7.30
2022-10-19T06:58:39.113Z,7.32
2022-10-19T07:01:10.125Z,7.45
2022-10-19T07:03:37.637Z,8.30
2022-10-19T07:06:06.920Z,6.13
2022-10-19T07:08:35.762Z,7.68
2022-10-19T07:11:05.436Z,7.40
2022-10-19T07:13:32.058Z,8.30
2022-10-19T07:16:06.864Z,6.03
2022-10-19T07:18:34.743Z,7.45
2022-10-19T07:21:04.127Z,7.57
2022-10-19T07:23:31.977Z,5.28
2022-10-19T07:26:03.706Z,7.45
2022-10-19T07:28:30.927Z,6.65
2022-10-19T07:30:57.571Z,6.22
2022-10-19T07:33:24.218Z,7.00
2022-10-19T07:35:50.871Z,6.70
2022-10-19T07:38:17.487Z,5.63
2022-10-19T07:40:46.552Z,7.82
2022-10-19T07:43:14.220Z,5.50
2022-10-19T07:45:40.831Z,7.03
2022-10-19T07:48:07.420Z,7.00
2022-10-19T07:50:35.439Z,6.40
2022-10-19T07:53:05.155Z,7.47
2022-10-19T07:55:34.101Z,6.40
2022-10-19T07:58:01.976Z,6.05
2022-10-19T08:00:29.657Z,6.22
2022-10-19T08:03:19.345Z,6.95
2022-10-19T08:05:42.982Z,6.35
2022-10-19T08:08:11.988Z,5.63
2022-10-19T08:10:38.688Z,4.80
2022-10-19T08:13:05.228Z,6.13
2022-10-19T08:15:32.498Z,6.20
2022-10-19T08:17:59.933Z,5.30
2022-10-19T08:20:27.077Z,6.60
2022-10-19T08:22:56.533Z,6.38
2022-10-19T08:25:25.651Z,6.00
2022-10-19T08:27:52.641Z,5.32
2022-10-19T08:30:19.353Z,6.72
2022-10-19T08:32:45.978Z,6.07
2022-10-19T08:35:12.594Z,6.10
2022-10-19T08:37:44.690Z,5.65
2022-10-19T08:40:24.533Z,5.07
2022-10-19T08:43:17.977Z,5.53
2022-10-19T08:45:51.464Z,5.47
2022-10-19T08:48:32.942Z,4.25
2022-10-19T08:51:00.346Z,5.05
2022-10-19T08:53:41.436Z,4.68
2022-10-19T08:59:26.738Z,5.05
2022-10-19T09:02:03.596Z,5.95
2022-10-19T09:04:37.226Z,6.32
2022-10-19T09:07:10.064Z,6.47
2022-10-19T09:09:43.163Z,6.47
2022-10-19T09:12:11.996Z,7.07
2022-10-19T09:14:43.945Z,5.65
2022-10-19T09:17:13.929Z,5.72
2022-10-19T09:19:40.624Z,6.90
2022-10-19T09:22:13.277Z,6.25
2022-10-19T09:24:53.189Z,6.78
2022-10-19T09:27:28.906Z,6.28
2022-10-19T09:29:57.982Z,6.90
2022-10-19T09:32:44.998Z,6.50
2022-10-19T09:35:50.159Z,6.40
2022-10-19T09:38:16.877Z,6.65
2022-10-19T09:40:44.072Z,7.78
2022-10-19T09:43:20.971Z,7.20
2022-10-19T09:45:58.768Z,7.50
2022-10-19T09:48:44.079Z,6.10
2022-10-19T09:51:13.938Z,7.80
2022-10-19T09:53:50.430Z,7.03
2022-10-19T09:56:23.131Z,6.88
2022-10-19T09:58:51.818Z,8.43
2022-10-19T10:01:43.193Z,7.55
2022-10-19T10:04:13.921Z,8.43
2022-10-19T10:06:41.328Z,8.93
2022-10-19T10:09:08.060Z,7.20
2022-10-19T10:11:38.142Z,8.35
2022-10-19T10:14:29.045Z,8.65
2022-10-19T10:17:04.498Z,7.97
2022-10-19T10:19:32.716Z,7.75
2022-10-19T10:22:00.186Z,8.68
2022-10-19T10:24:31.302Z,7.80
2022-10-19T10:27:03.852Z,9.35
2022-10-19T10:29:35.150Z,9.07
2022-10-19T10:32:01.652Z,12.00
2022-10-19T10:34:53.118Z,11.80
2022-10-19T10:37:28.483Z,10.70
2022-10-19T10:39:59.176Z,11.57
2022-10-19T10:42:32.813Z,12.88
2022-10-19T10:44:59.813Z,11.52
2022-10-19T10:47:28.245Z,11.13
2022-10-19T10:50:02.700Z,11.35
2022-10-19T10:52:33.603Z,11.00
2022-10-19T10:55:16.806Z,12.20
2022-10-19T10:57:49.977Z,10.32
2022-10-19T11:00:19.593Z,11.98
2022-10-19T11:02:54.121Z,13.18
2022-10-19T11:05:33.794Z,12.10
2022-10-19T11:08:09.781Z,13.95
2022-10-19T11:10:52.580Z,13.85
2022-10-19T11:13:34.338Z,15.80
2022-10-19T11:16:09.056Z,15.23
2022-10-19T11:21:11.706Z,18.40
2022-10-19T11:23:59.555Z,18.70
2022-10-19T11:26:41.855Z,17.55
2022-10-19T11:29:37.805Z,17.55
2022-10-19T11:32:15.827Z,19.45
2022-10-19T11:35:01.254Z,16.98
2022-10-19T11:37:32.009Z,18.17
2022-10-19T11:40:21.859Z,16.77
2022-10-19T11:43:03.219Z,18.80
2022-10-19T11:48:19.200Z,16.77
2022-10-19T11:50:58.604Z,15.70
2022-10-19T11:53:33.660Z,16.35
2022-10-19T11:56:06.390Z,14.15
2022-10-19T11:58:54.166Z,15.45
2022-10-19T12:01:26.533Z,15.93
2022-10-19T12:04:19.330Z,16.50
2022-10-19T12:06:54.392Z,15.15
2022-10-19T12:09:37.499Z,14.35
2022-10-19T12:12:22.848Z,14.65
2022-10-19T12:14:53.097Z,15.35
2022-10-19T12:17:32.412Z,14.25
2022-10-19T12:20:03.915Z,14.98
2022-10-19T12:22:31.010Z,15.85
2022-10-19T12:24:59.759Z,15.63
2022-10-19T12:27:40.227Z,16.55
2022-10-19T12:30:12.931Z,15.63
2022-10-19T12:32:52.007Z,14.85
2022-10-19T12:35:39.171Z,12.30
2022-10-19T12:38:35.707Z,11.10
2022-10-19T12:41:24.697Z,10.40
2022-10-19T12:43:57.166Z,9.00
2022-10-19T12:46:41.098Z,9.55
2022-10-19T12:49:26.555Z,7.20
2022-10-19T12:51:54.556Z,8.35
2022-10-19T12:54:26.707Z,8.75
2022-10-19T12:56:55.786Z,12.68
2022-10-19T12:59:34.858Z,12.43
2022-10-19T13:02:05.027Z,8.88
2022-10-19T13:04:34.256Z,8.85
2022-10-19T13:07:08.492Z,8.65
2022-10-19T13:09:43.229Z,9.02
2022-10-19T13:12:19.652Z,8.82
2022-10-19T13:14:52.948Z,8.85
2022-10-19T13:17:36.624Z,10.02
2022-10-19T13:20:15.538Z,9.13
2022-10-19T13:22:44.958Z,9.38
2022-10-19T13:25:37.313Z,8.13
2022-10-19T13:28:06.941Z,8.77
2022-10-19T14:58:17.987Z,8.18
2022-10-19T15:00:47.898Z,8.07
2022-10-19T15:03:23.277Z,8.43
2022-10-19T15:05:52.682Z,8.40
2022-10-19T15:08:42.558Z,9.65
2022-10-19T15:11:25.106Z,9.57
2022-10-19T15:13:58.006Z,8.95
2022-10-19T15:16:39.715Z,9.15
2022-10-19T15:19:11.056Z,9.00
2022-10-19T15:21:37.634Z,8.82
2022-10-19T15:47:29.106Z,8.50
2022-10-19T15:49:56.140Z,8.63
2022-10-19T15:52:24.853Z,8.30
2022-10-19T15:54:53.851Z,8.70
2022-10-19T15:57:25.754Z,8.88
2022-10-19T15:59:53.274Z,7.53
2022-10-19T16:02:19.777Z,7.57
2022-10-19T16:04:46.271Z,8.15
2022-10-19T16:07:19.939Z,9.15
2022-10-19T16:09:46.493Z,7.85
2022-10-19T16:12:13.002Z,8.48
2022-10-19T16:14:39.562Z,7.90
2022-10-19T16:17:06.068Z,8.18
2022-10-19T16:19:32.651Z,7.93
2022-10-19T16:21:59.171Z,9.00
2022-10-19T16:24:25.732Z,7.15
2022-10-19T16:26:52.210Z,7.97
2022-10-19T16:29:18.845Z,7.60
2022-10-19T16:31:45.330Z,7.38
2022-10-19T16:34:11.881Z,7.78
2022-10-19T16:36:38.413Z,6.80
2022-10-19T16:39:05.070Z,7.70
2022-10-19T16:41:32.118Z,7.63
2022-10-19T16:43:58.867Z,7.00
2022-10-19T16:46:25.499Z,7.72
2022-10-19T16:48:52.894Z,7.53
2022-10-19T16:51:37.618Z,7.30
2022-10-19T16:54:06.319Z,6.78
2022-10-19T16:56:33.673Z,8.10
2022-10-19T16:59:03.017Z,8.25
2022-10-19T17:01:30.539Z,7.35
2022-10-19T17:03:57.477Z,7.05
2022-10-19T17:06:25.037Z,7.22
2022-10-19T17:09:29.879Z,6.25
2022-10-19T17:11:39.515Z,8.38
2022-10-19T17:14:08.307Z,6.57
2022-10-19T17:16:35.986Z,7.00
2022-10-19T17:19:03.668Z,7.82
2022-10-19T17:21:32.383Z,7.68
2022-10-19T17:24:01.188Z,6.25
2022-10-19T17:26:28.388Z,6.93
2022-10-19T17:28:55.984Z,6.78
2022-10-19T17:31:22.604Z,5.95
2022-10-19T17:33:49.762Z,7.75
2022-10-19T17:36:19.587Z,7.05
2022-10-19T17:38:46.720Z,8.82
2022-10-19T17:41:18.152Z,8.60
2022-10-19T17:43:46.621Z,8.07
2022-10-19T17:46:15.928Z,8.05
2022-10-19T17:48:43.426Z,8.57
2022-10-19T17:51:18.241Z,8.40
2022-10-19T17:53:46.193Z,9.07
2022-10-19T17:56:18.911Z,9.15
2022-10-19T17:58:45.738Z,9.70
2022-10-19T18:01:12.653Z,8.48
2022-10-19T18:03:39.852Z,8.55
2022-10-19T18:06:18.423Z,7.28
2022-10-19T18:08:47.590Z,11.05
2022-10-19T18:11:15.106Z,8.50
2022-10-19T18:13:42.379Z,8.18
2022-10-19T18:16:13.384Z,8.95
2022-10-19T18:18:41.910Z,9.05
2022-10-19T18:21:13.730Z,8.10
2022-10-19T18:23:40.573Z,8.88
2022-10-19T18:26:13.506Z,8.60
